ロンドン/ヒースロー の空港の天気 - METARとTAF

ロンドン・ヒースロー空港 ( EGLL / LHR ) - イギリス ロンドン
飛行場実況気象(Metar)
観測時間01/18 17:50 GMT (01/18 17:50 UTC)
風向・風速東南東 2m/s
視程10km以上
天気現象
なし
気温3℃
湿度60%
気圧1038hPa
METAREGLL 181750Z AUTO 11004KT 080V160 9999 NCD 03/M04 Q1038 NOSIG
過去の天気等 Google飛行場航空写真 Wunderground天気予報

過去48時間のMETAR

飛行場予報(TAF)
発表時間: 1/18 16:54 GMT (1/18 16:54 UTC)
予報対象時間: 18日18時 GMT ~ 20日0時 GMT
風向・風速不定 1m/s
視程10km以上
なし
18日18時 GMT ~ 18日21時 GMT に徐々に
視程7,000m
19日0時 GMT ~ 19日10時 GMT に一時的に
視程4,000m
天気現象もや
19日10時 GMT ~ 19日12時 GMT に徐々に
視程10km以上
天気現象運行に影響にある天気現象が終了
19日20時 GMT ~ 19日24時 GMT に一時的に
視程7,000m
TAF EGLL 181654Z 1818/1924 VRB02KT CAVOK
BECMG 1818/1821 7000
TEMPO 1900/1910 4000 BR
BECMG 1910/1912 9999 NSW
TEMPO 1920/1924 7000